sensor_id;sensor_type;location;lat;lon;timestamp;P1;durP1;ratioP1;P2;durP2;ratioP2
50779;SDS011;36748;37.428;-121.972;2023-05-14T00:00:27;6.38;;;2.03;;
50779;SDS011;36748;37.428;-121.972;2023-05-14T00:02:53;4.30;;;2.33;;
50779;SDS011;36748;37.428;-121.972;2023-05-14T00:05:19;6.78;;;2.30;;
50779;SDS011;36748;37.428;-121.972;2023-05-14T00:07:45;8.52;;;2.40;;
50779;SDS011;36748;37.428;-121.972;2023-05-14T00:10:11;6.72;;;2.50;;
50779;SDS011;36748;37.428;-121.972;2023-05-14T00:12:38;6.10;;;2.35;;
50779;SDS011;36748;37.428;-121.972;2023-05-14T00:15:04;6.95;;;2.67;;
50779;SDS011;36748;37.428;-121.972;2023-05-14T00:17:31;6.72;;;2.28;;
50779;SDS011;36748;37.428;-121.972;2023-05-14T00:19:57;4.70;;;2.50;;
50779;SDS011;36748;37.428;-121.972;2023-05-14T00:22:23;6.40;;;2.28;;
50779;SDS011;36748;37.428;-121.972;2023-05-14T00:24:50;8.25;;;2.53;;
50779;SDS011;36748;37.428;-121.972;2023-05-14T00:27:16;7.68;;;2.55;;
50779;SDS011;36748;37.428;-121.972;2023-05-14T00:29:42;10.30;;;2.70;;
50779;SDS011;36748;37.428;-121.972;2023-05-14T00:32:26;9.68;;;2.63;;
50779;SDS011;36748;37.428;-121.972;2023-05-14T00:34:53;6.03;;;2.35;;
50779;SDS011;36748;37.428;-121.972;2023-05-14T00:37:19;5.55;;;2.03;;
50779;SDS011;36748;37.428;-121.972;2023-05-14T00:39:45;8.43;;;2.50;;
50779;SDS011;36748;37.428;-121.972;2023-05-14T00:42:11;8.77;;;2.65;;
50779;SDS011;36748;37.428;-121.972;2023-05-14T00:44:37;6.55;;;2.20;;
50779;SDS011;36748;37.428;-121.972;2023-05-14T00:47:03;7.82;;;2.58;;
50779;SDS011;36748;37.428;-121.972;2023-05-14T00:49:30;6.32;;;2.30;;
50779;SDS011;36748;37.428;-121.972;2023-05-14T00:51:56;6.18;;;2.50;;
50779;SDS011;36748;37.428;-121.972;2023-05-14T00:54:24;5.95;;;2.33;;
50779;SDS011;36748;37.428;-121.972;2023-05-14T00:56:51;5.90;;;2.35;;
50779;SDS011;36748;37.428;-121.972;2023-05-14T00:59:17;6.28;;;2.30;;
50779;SDS011;36748;37.428;-121.972;2023-05-14T01:01:44;4.90;;;2.45;;
50779;SDS011;36748;37.428;-121.972;2023-05-14T01:04:10;4.38;;;1.95;;
50779;SDS011;36748;37.428;-121.972;2023-05-14T01:11:57;6.15;;;2.25;;
50779;SDS011;36748;37.428;-121.972;2023-05-14T01:14:56;4.32;;;2.17;;
50779;SDS011;36748;37.428;-121.972;2023-05-14T01:17:29;6.63;;;2.40;;
50779;SDS011;36748;37.428;-121.972;2023-05-14T01:19:57;4.97;;;2.35;;
50779;SDS011;36748;37.428;-121.972;2023-05-14T01:22:24;10.57;;;2.38;;
50779;SDS011;36748;37.428;-121.972;2023-05-14T01:24:51;3.83;;;2.20;;
50779;SDS011;36748;37.428;-121.972;2023-05-14T01:32:49;4.00;;;2.20;;
50779;SDS011;36748;37.428;-121.972;2023-05-14T01:35:17;5.00;;;2.47;;
50779;SDS011;36748;37.428;-121.972;2023-05-14T01:37:44;4.05;;;1.98;;
50779;SDS011;36748;37.428;-121.972;2023-05-14T01:40:11;4.00;;;1.92;;
50779;SDS011;36748;37.428;-121.972;2023-05-14T01:42:38;4.05;;;2.45;;
50779;SDS011;36748;37.428;-121.972;2023-05-14T01:45:04;4.43;;;2.15;;
50779;SDS011;36748;37.428;-121.972;2023-05-14T01:47:30;5.82;;;2.20;;
50779;SDS011;36748;37.428;-121.972;2023-05-14T01:49:57;3.17;;;1.73;;
50779;SDS011;36748;37.428;-121.972;2023-05-14T01:52:23;4.50;;;2.10;;
50779;SDS011;36748;37.428;-121.972;2023-05-14T01:54:49;6.00;;;2.42;;
50779;SDS011;36748;37.428;-121.972;2023-05-14T01:57:16;4.88;;;2.13;;
50779;SDS011;36748;37.428;-121.972;2023-05-14T01:59:42;5.20;;;2.00;;
50779;SDS011;36748;37.428;-121.972;2023-05-14T02:02:08;3.28;;;1.80;;
50779;SDS011;36748;37.428;-121.972;2023-05-14T02:04:34;4.50;;;2.40;;
50779;SDS011;36748;37.428;-121.972;2023-05-14T02:07:00;4.60;;;2.50;;
50779;SDS011;36748;37.428;-121.972;2023-05-14T02:09:26;3.75;;;1.80;;
50779;SDS011;36748;37.428;-121.972;2023-05-14T02:11:52;5.45;;;2.00;;
50779;SDS011;36748;37.428;-121.972;2023-05-14T02:14:19;4.57;;;2.30;;
50779;SDS011;36748;37.428;-121.972;2023-05-14T02:16:45;3.30;;;2.00;;
50779;SDS011;36748;37.428;-121.972;2023-05-14T02:19:11;3.55;;;1.77;;
50779;SDS011;36748;37.428;-121.972;2023-05-14T02:21:37;3.55;;;1.95;;
50779;SDS011;36748;37.428;-121.972;2023-05-14T02:24:03;5.15;;;2.40;;
50779;SDS011;36748;37.428;-121.972;2023-05-14T02:26:30;3.70;;;2.08;;
50779;SDS011;36748;37.428;-121.972;2023-05-14T02:28:56;3.35;;;1.80;;
50779;SDS011;36748;37.428;-121.972;2023-05-14T02:31:22;3.53;;;2.10;;
50779;SDS011;36748;37.428;-121.972;2023-05-14T02:33:48;4.03;;;2.15;;
50779;SDS011;36748;37.428;-121.972;2023-05-14T02:36:14;3.08;;;1.90;;
50779;SDS011;36748;37.428;-121.972;2023-05-14T02:38:40;3.85;;;1.70;;
50779;SDS011;36748;37.428;-121.972;2023-05-14T02:41:06;4.85;;;1.98;;
50779;SDS011;36748;37.428;-121.972;2023-05-14T02:43:33;3.25;;;1.90;;
50779;SDS011;36748;37.428;-121.972;2023-05-14T02:45:59;5.95;;;2.20;;
50779;SDS011;36748;37.428;-121.972;2023-05-14T02:48:25;3.28;;;2.15;;
50779;SDS011;36748;37.428;-121.972;2023-05-14T02:50:51;3.30;;;2.08;;
50779;SDS011;36748;37.428;-121.972;2023-05-14T02:53:17;3.65;;;2.10;;
50779;SDS011;36748;37.428;-121.972;2023-05-14T02:55:43;5.20;;;1.95;;
50779;SDS011;36748;37.428;-121.972;2023-05-14T02:58:09;4.47;;;1.90;;
50779;SDS011;36748;37.428;-121.972;2023-05-14T03:00:36;3.30;;;2.00;;
50779;SDS011;36748;37.428;-121.972;2023-05-14T03:03:02;4.20;;;1.95;;
50779;SDS011;36748;37.428;-121.972;2023-05-14T03:05:28;3.40;;;1.80;;
50779;SDS011;36748;37.428;-121.972;2023-05-14T03:07:54;4.20;;;1.80;;
50779;SDS011;36748;37.428;-121.972;2023-05-14T03:10:20;2.88;;;1.77;;
50779;SDS011;36748;37.428;-121.972;2023-05-14T03:12:46;2.47;;;1.60;;
50779;SDS011;36748;37.428;-121.972;2023-05-14T03:15:13;4.70;;;2.03;;
50779;SDS011;36748;37.428;-121.972;2023-05-14T03:17:39;4.18;;;2.00;;
50779;SDS011;36748;37.428;-121.972;2023-05-14T03:20:06;3.33;;;2.00;;
50779;SDS011;36748;37.428;-121.972;2023-05-14T03:22:32;2.83;;;1.70;;
50779;SDS011;36748;37.428;-121.972;2023-05-14T03:24:58;3.22;;;2.08;;
50779;SDS011;36748;37.428;-121.972;2023-05-14T03:27:25;2.63;;;1.90;;
50779;SDS011;36748;37.428;-121.972;2023-05-14T03:29:51;2.28;;;1.65;;
50779;SDS011;36748;37.428;-121.972;2023-05-14T03:32:17;3.33;;;1.67;;
50779;SDS011;36748;37.428;-121.972;2023-05-14T03:34:43;2.47;;;1.67;;
50779;SDS011;36748;37.428;-121.972;2023-05-14T03:37:10;4.25;;;1.90;;
50779;SDS011;36748;37.428;-121.972;2023-05-14T03:39:36;2.88;;;1.48;;
50779;SDS011;36748;37.428;-121.972;2023-05-14T03:42:02;3.15;;;1.77;;
50779;SDS011;36748;37.428;-121.972;2023-05-14T03:44:28;2.63;;;1.80;;
50779;SDS011;36748;37.428;-121.972;2023-05-14T03:46:56;4.93;;;1.88;;
50779;SDS011;36748;37.428;-121.972;2023-05-14T03:49:23;3.72;;;1.90;;
50779;SDS011;36748;37.428;-121.972;2023-05-14T03:51:49;3.13;;;1.73;;
50779;SDS011;36748;37.428;-121.972;2023-05-14T03:54:15;4.18;;;1.58;;
50779;SDS011;36748;37.428;-121.972;2023-05-14T03:56:41;3.38;;;1.88;;
50779;SDS011;36748;37.428;-121.972;2023-05-14T03:59:08;2.75;;;1.40;;
50779;SDS011;36748;37.428;-121.972;2023-05-14T04:01:34;2.42;;;1.70;;
50779;SDS011;36748;37.428;-121.972;2023-05-14T04:04:03;1.48;;;1.30;;
50779;SDS011;36748;37.428;-121.972;2023-05-14T04:06:29;4.88;;;1.58;;
50779;SDS011;36748;37.428;-121.972;2023-05-14T04:08:55;3.65;;;1.60;;
50779;SDS011;36748;37.428;-121.972;2023-05-14T04:11:21;4.18;;;1.73;;
50779;SDS011;36748;37.428;-121.972;2023-05-14T04:13:48;2.38;;;1.40;;
50779;SDS011;36748;37.428;-121.972;2023-05-14T04:16:14;2.60;;;1.60;;
50779;SDS011;36748;37.428;-121.972;2023-05-14T04:18:40;2.88;;;1.35;;
50779;SDS011;36748;37.428;-121.972;2023-05-14T04:21:06;2.03;;;1.55;;
50779;SDS011;36748;37.428;-121.972;2023-05-14T04:23:32;1.55;;;1.10;;
50779;SDS011;36748;37.428;-121.972;2023-05-14T04:25:58;1.73;;;1.40;;
50779;SDS011;36748;37.428;-121.972;2023-05-14T04:28:25;2.13;;;1.40;;
50779;SDS011;36748;37.428;-121.972;2023-05-14T04:30:51;2.58;;;1.55;;
50779;SDS011;36748;37.428;-121.972;2023-05-14T04:33:17;2.58;;;1.48;;
50779;SDS011;36748;37.428;-121.972;2023-05-14T04:35:43;2.08;;;1.40;;
50779;SDS011;36748;37.428;-121.972;2023-05-14T04:38:10;2.42;;;1.60;;
50779;SDS011;36748;37.428;-121.972;2023-05-14T04:40:38;2.78;;;1.52;;
50779;SDS011;36748;37.428;-121.972;2023-05-14T04:43:05;4.03;;;1.80;;
50779;SDS011;36748;37.428;-121.972;2023-05-14T04:45:32;2.95;;;1.77;;
50779;SDS011;36748;37.428;-121.972;2023-05-14T04:47:58;1.90;;;1.27;;
50779;SDS011;36748;37.428;-121.972;2023-05-14T04:50:24;1.58;;;1.27;;
50779;SDS011;36748;37.428;-121.972;2023-05-14T04:52:51;2.22;;;1.50;;
50779;SDS011;36748;37.428;-121.972;2023-05-14T04:55:17;1.70;;;1.50;;
50779;SDS011;36748;37.428;-121.972;2023-05-14T04:57:43;2.72;;;1.42;;
50779;SDS011;36748;37.428;-121.972;2023-05-14T05:00:10;2.67;;;1.48;;
50779;SDS011;36748;37.428;-121.972;2023-05-14T05:02:37;2.25;;;1.67;;
50779;SDS011;36748;37.428;-121.972;2023-05-14T05:05:03;1.63;;;1.35;;
50779;SDS011;36748;37.428;-121.972;2023-05-14T05:07:30;5.65;;;1.45;;
50779;SDS011;36748;37.428;-121.972;2023-05-14T05:09:56;2.35;;;1.40;;
50779;SDS011;36748;37.428;-121.972;2023-05-14T05:12:22;1.83;;;1.20;;
50779;SDS011;36748;37.428;-121.972;2023-05-14T05:14:48;7.03;;;1.88;;
50779;SDS011;36748;37.428;-121.972;2023-05-14T05:17:15;2.80;;;1.10;;
50779;SDS011;36748;37.428;-121.972;2023-05-14T05:19:41;3.50;;;1.50;;
50779;SDS011;36748;37.428;-121.972;2023-05-14T05:22:07;4.50;;;1.45;;
50779;SDS011;36748;37.428;-121.972;2023-05-14T05:24:33;2.13;;;1.17;;
50779;SDS011;36748;37.428;-121.972;2023-05-14T05:26:59;3.00;;;1.20;;
50779;SDS011;36748;37.428;-121.972;2023-05-14T05:29:26;1.83;;;1.48;;
50779;SDS011;36748;37.428;-121.972;2023-05-14T05:31:52;3.20;;;1.70;;
50779;SDS011;36748;37.428;-121.972;2023-05-14T05:34:18;2.20;;;1.30;;
50779;SDS011;36748;37.428;-121.972;2023-05-14T05:36:45;3.67;;;1.48;;
50779;SDS011;36748;37.428;-121.972;2023-05-14T05:39:11;1.83;;;1.20;;
50779;SDS011;36748;37.428;-121.972;2023-05-14T05:41:37;2.58;;;1.77;;
50779;SDS011;36748;37.428;-121.972;2023-05-14T05:44:03;4.68;;;1.35;;
50779;SDS011;36748;37.428;-121.972;2023-05-14T05:46:30;2.17;;;1.50;;
50779;SDS011;36748;37.428;-121.972;2023-05-14T05:48:56;4.00;;;1.70;;
50779;SDS011;36748;37.428;-121.972;2023-05-14T05:51:22;1.17;;;1.05;;
50779;SDS011;36748;37.428;-121.972;2023-05-14T05:53:48;3.30;;;1.20;;
50779;SDS011;36748;37.428;-121.972;2023-05-14T05:56:14;2.22;;;1.35;;
50779;SDS011;36748;37.428;-121.972;2023-05-14T05:58:40;4.75;;;1.42;;
50779;SDS011;36748;37.428;-121.972;2023-05-14T06:01:07;3.40;;;1.77;;
50779;SDS011;36748;37.428;-121.972;2023-05-14T06:03:33;2.05;;;1.30;;
50779;SDS011;36748;37.428;-121.972;2023-05-14T06:05:59;2.55;;;1.50;;
50779;SDS011;36748;37.428;-121.972;2023-05-14T06:08:25;2.40;;;1.33;;
50779;SDS011;36748;37.428;-121.972;2023-05-14T06:10:52;3.08;;;1.50;;
50779;SDS011;36748;37.428;-121.972;2023-05-14T06:13:18;1.80;;;1.20;;
50779;SDS011;36748;37.428;-121.972;2023-05-14T06:15:44;5.03;;;1.42;;
50779;SDS011;36748;37.428;-121.972;2023-05-14T06:18:10;1.45;;;1.35;;
50779;SDS011;36748;37.428;-121.972;2023-05-14T06:20:36;2.95;;;1.35;;
50779;SDS011;36748;37.428;-121.972;2023-05-14T06:23:04;3.67;;;1.38;;
50779;SDS011;36748;37.428;-121.972;2023-05-14T06:25:33;3.58;;;1.70;;
50779;SDS011;36748;37.428;-121.972;2023-05-14T06:28:00;2.03;;;1.58;;
50779;SDS011;36748;37.428;-121.972;2023-05-14T06:30:26;2.65;;;1.40;;
50779;SDS011;36748;37.428;-121.972;2023-05-14T06:32:52;2.05;;;1.20;;
50779;SDS011;36748;37.428;-121.972;2023-05-14T06:35:18;2.20;;;1.05;;
50779;SDS011;36748;37.428;-121.972;2023-05-14T06:37:45;1.58;;;1.23;;
50779;SDS011;36748;37.428;-121.972;2023-05-14T06:40:11;2.17;;;1.20;;
50779;SDS011;36748;37.428;-121.972;2023-05-14T06:42:42;1.60;;;1.25;;
50779;SDS011;36748;37.428;-121.972;2023-05-14T06:45:09;3.35;;;1.13;;
50779;SDS011;36748;37.428;-121.972;2023-05-14T06:47:35;1.65;;;1.20;;
50779;SDS011;36748;37.428;-121.972;2023-05-14T06:50:01;2.50;;;1.27;;
50779;SDS011;36748;37.428;-121.972;2023-05-14T06:52:27;1.58;;;1.00;;
50779;SDS011;36748;37.428;-121.972;2023-05-14T06:54:54;1.60;;;1.08;;
50779;SDS011;36748;37.428;-121.972;2023-05-14T06:57:20;1.73;;;1.15;;
50779;SDS011;36748;37.428;-121.972;2023-05-14T06:59:46;2.08;;;1.10;;
50779;SDS011;36748;37.428;-121.972;2023-05-14T07:02:12;1.30;;;1.10;;
50779;SDS011;36748;37.428;-121.972;2023-05-14T07:04:38;1.25;;;1.08;;
50779;SDS011;36748;37.428;-121.972;2023-05-14T07:07:04;2.13;;;1.00;;
50779;SDS011;36748;37.428;-121.972;2023-05-14T07:09:31;1.23;;;1.08;;
50779;SDS011;36748;37.428;-121.972;2023-05-14T07:12:00;1.40;;;1.30;;
50779;SDS011;36748;37.428;-121.972;2023-05-14T07:14:26;3.40;;;1.20;;
50779;SDS011;36748;37.428;-121.972;2023-05-14T07:16:52;2.97;;;1.48;;
50779;SDS011;36748;37.428;-121.972;2023-05-14T07:19:19;1.42;;;1.10;;
50779;SDS011;36748;37.428;-121.972;2023-05-14T07:21:46;1.63;;;1.20;;
50779;SDS011;36748;37.428;-121.972;2023-05-14T07:24:12;2.13;;;1.40;;
50779;SDS011;36748;37.428;-121.972;2023-05-14T07:26:38;1.10;;;0.85;;
50779;SDS011;36748;37.428;-121.972;2023-05-14T07:29:05;2.15;;;1.23;;
50779;SDS011;36748;37.428;-121.972;2023-05-14T07:31:31;1.75;;;1.30;;
50779;SDS011;36748;37.428;-121.972;2023-05-14T07:33:57;2.58;;;1.33;;
50779;SDS011;36748;37.428;-121.972;2023-05-14T07:36:23;2.95;;;1.30;;
50779;SDS011;36748;37.428;-121.972;2023-05-14T07:38:49;3.45;;;1.58;;
50779;SDS011;36748;37.428;-121.972;2023-05-14T07:41:15;1.80;;;0.98;;
50779;SDS011;36748;37.428;-121.972;2023-05-14T07:43:42;1.70;;;1.30;;
50779;SDS011;36748;37.428;-121.972;2023-05-14T07:46:08;1.73;;;1.02;;
50779;SDS011;36748;37.428;-121.972;2023-05-14T07:48:34;1.73;;;1.20;;
50779;SDS011;36748;37.428;-121.972;2023-05-14T07:51:00;1.88;;;1.13;;
50779;SDS011;36748;37.428;-121.972;2023-05-14T07:53:26;2.83;;;1.38;;
50779;SDS011;36748;37.428;-121.972;2023-05-14T07:55:53;2.50;;;1.17;;
50779;SDS011;36748;37.428;-121.972;2023-05-14T07:58:19;1.20;;;1.10;;
50779;SDS011;36748;37.428;-121.972;2023-05-14T08:00:45;1.90;;;1.30;;
50779;SDS011;36748;37.428;-121.972;2023-05-14T08:03:11;1.90;;;1.20;;
50779;SDS011;36748;37.428;-121.972;2023-05-14T08:05:38;2.03;;;1.00;;
50779;SDS011;36748;37.428;-121.972;2023-05-14T08:08:04;1.50;;;1.00;;
50779;SDS011;36748;37.428;-121.972;2023-05-14T08:10:30;1.85;;;1.10;;
50779;SDS011;36748;37.428;-121.972;2023-05-14T08:12:57;1.88;;;1.35;;
50779;SDS011;36748;37.428;-121.972;2023-05-14T08:15:23;2.83;;;1.20;;
50779;SDS011;36748;37.428;-121.972;2023-05-14T08:17:49;1.00;;;0.85;;
50779;SDS011;36748;37.428;-121.972;2023-05-14T08:20:15;2.10;;;1.30;;
50779;SDS011;36748;37.428;-121.972;2023-05-14T08:22:42;1.88;;;1.00;;
50779;SDS011;36748;37.428;-121.972;2023-05-14T08:25:08;2.30;;;1.20;;
50779;SDS011;36748;37.428;-121.972;2023-05-14T08:27:34;1.27;;;1.15;;
50779;SDS011;36748;37.428;-121.972;2023-05-14T08:30:01;1.55;;;1.08;;
50779;SDS011;36748;37.428;-121.972;2023-05-14T08:32:28;1.65;;;0.90;;
50779;SDS011;36748;37.428;-121.972;2023-05-14T08:34:54;1.75;;;1.10;;
50779;SDS011;36748;37.428;-121.972;2023-05-14T08:37:20;1.98;;;1.17;;
50779;SDS011;36748;37.428;-121.972;2023-05-14T08:39:47;1.10;;;1.00;;
50779;SDS011;36748;37.428;-121.972;2023-05-14T08:42:14;1.50;;;1.00;;
50779;SDS011;36748;37.428;-121.972;2023-05-14T08:44:47;1.90;;;1.00;;
50779;SDS011;36748;37.428;-121.972;2023-05-14T08:47:17;1.77;;;1.00;;
50779;SDS011;36748;37.428;-121.972;2023-05-14T08:49:48;1.70;;;1.17;;
50779;SDS011;36748;37.428;-121.972;2023-05-14T08:52:18;1.58;;;1.27;;
50779;SDS011;36748;37.428;-121.972;2023-05-14T08:54:45;1.40;;;1.00;;
50779;SDS011;36748;37.428;-121.972;2023-05-14T08:57:12;1.70;;;1.00;;
50779;SDS011;36748;37.428;-121.972;2023-05-14T08:59:39;1.83;;;1.13;;
50779;SDS011;36748;37.428;-121.972;2023-05-14T09:02:05;1.17;;;1.00;;
50779;SDS011;36748;37.428;-121.972;2023-05-14T09:04:33;1.13;;;1.00;;
50779;SDS011;36748;37.428;-121.972;2023-05-14T09:07:00;1.83;;;1.00;;
50779;SDS011;36748;37.428;-121.972;2023-05-14T09:09:27;1.45;;;1.00;;
50779;SDS011;36748;37.428;-121.972;2023-05-14T09:11:53;1.13;;;1.02;;
50779;SDS011;36748;37.428;-121.972;2023-05-14T09:14:19;1.67;;;0.90;;
50779;SDS011;36748;37.428;-121.972;2023-05-14T09:16:47;1.27;;;1.10;;
50779;SDS011;36748;37.428;-121.972;2023-05-14T09:19:14;1.58;;;1.10;;
50779;SDS011;36748;37.428;-121.972;2023-05-14T09:21:46;1.13;;;1.02;;
50779;SDS011;36748;37.428;-121.972;2023-05-14T09:24:20;3.42;;;1.13;;
50779;SDS011;36748;37.428;-121.972;2023-05-14T09:26:53;2.15;;;0.95;;
50779;SDS011;36748;37.428;-121.972;2023-05-14T09:29:23;1.17;;;0.90;;
50779;SDS011;36748;37.428;-121.972;2023-05-14T09:31:50;1.45;;;0.88;;
50779;SDS011;36748;37.428;-121.972;2023-05-14T09:34:23;2.30;;;0.80;;
50779;SDS011;36748;37.428;-121.972;2023-05-14T09:36:54;1.00;;;0.80;;
50779;SDS011;36748;37.428;-121.972;2023-05-14T09:39:30;1.38;;;1.10;;
50779;SDS011;36748;37.428;-121.972;2023-05-14T09:41:57;1.35;;;0.85;;
50779;SDS011;36748;37.428;-121.972;2023-05-14T09:44:27;1.00;;;0.90;;
50779;SDS011;36748;37.428;-121.972;2023-05-14T09:46:54;1.58;;;0.90;;
50779;SDS011;36748;37.428;-121.972;2023-05-14T09:49:20;1.48;;;0.80;;
50779;SDS011;36748;37.428;-121.972;2023-05-14T09:51:47;0.80;;;0.80;;
50779;SDS011;36748;37.428;-121.972;2023-05-14T09:54:14;0.88;;;0.88;;
50779;SDS011;36748;37.428;-121.972;2023-05-14T09:56:41;1.95;;;1.00;;
50779;SDS011;36748;37.428;-121.972;2023-05-14T09:59:08;1.05;;;0.90;;
50779;SDS011;36748;37.428;-121.972;2023-05-14T10:01:34;0.85;;;0.70;;
50779;SDS011;36748;37.428;-121.972;2023-05-14T10:04:05;1.65;;;0.90;;
50779;SDS011;36748;37.428;-121.972;2023-05-14T10:06:32;1.95;;;0.88;;
50779;SDS011;36748;37.428;-121.972;2023-05-14T10:09:04;0.77;;;0.70;;
50779;SDS011;36748;37.428;-121.972;2023-05-14T10:11:37;1.25;;;0.82;;
50779;SDS011;36748;37.428;-121.972;2023-05-14T10:14:06;1.38;;;1.02;;
50779;SDS011;36748;37.428;-121.972;2023-05-14T10:16:36;2.35;;;0.95;;
50779;SDS011;36748;37.428;-121.972;2023-05-14T10:19:05;1.60;;;0.90;;
50779;SDS011;36748;37.428;-121.972;2023-05-14T10:21:33;1.55;;;0.70;;
50779;SDS011;36748;37.428;-121.972;2023-05-14T10:24:01;0.75;;;0.75;;
50779;SDS011;36748;37.428;-121.972;2023-05-14T10:26:31;1.45;;;0.90;;
50779;SDS011;36748;37.428;-121.972;2023-05-14T10:28:58;2.15;;;1.00;;
50779;SDS011;36748;37.428;-121.972;2023-05-14T10:31:44;1.02;;;0.70;;
50779;SDS011;36748;37.428;-121.972;2023-05-14T10:34:33;0.60;;;0.60;;
50779;SDS011;36748;37.428;-121.972;2023-05-14T10:37:15;1.42;;;1.00;;
50779;SDS011;36748;37.428;-121.972;2023-05-14T10:39:46;0.88;;;0.60;;
50779;SDS011;36748;37.428;-121.972;2023-05-14T10:42:17;1.52;;;0.95;;
50779;SDS011;36748;37.428;-121.972;2023-05-14T10:44:59;1.20;;;0.95;;
50779;SDS011;36748;37.428;-121.972;2023-05-14T10:47:30;0.77;;;0.70;;
50779;SDS011;36748;37.428;-121.972;2023-05-14T10:49:57;1.27;;;0.80;;
50779;SDS011;36748;37.428;-121.972;2023-05-14T10:52:24;2.40;;;0.70;;
50779;SDS011;36748;37.428;-121.972;2023-05-14T10:57:27;0.80;;;0.70;;
50779;SDS011;36748;37.428;-121.972;2023-05-14T10:59:56;4.22;;;1.10;;
50779;SDS011;36748;37.428;-121.972;2023-05-14T11:05:05;1.45;;;0.90;;
50779;SDS011;36748;37.428;-121.972;2023-05-14T11:07:39;1.08;;;0.88;;
50779;SDS011;36748;37.428;-121.972;2023-05-14T11:10:10;0.55;;;0.45;;
50779;SDS011;36748;37.428;-121.972;2023-05-14T11:12:43;0.68;;;0.68;;
50779;SDS011;36748;37.428;-121.972;2023-05-14T11:15:11;1.00;;;0.70;;
50779;SDS011;36748;37.428;-121.972;2023-05-14T11:17:41;1.40;;;0.77;;
50779;SDS011;36748;37.428;-121.972;2023-05-14T11:20:08;1.13;;;0.82;;
50779;SDS011;36748;37.428;-121.972;2023-05-14T11:22:36;0.80;;;0.70;;
50779;SDS011;36748;37.428;-121.972;2023-05-14T11:25:04;1.55;;;0.68;;
50779;SDS011;36748;37.428;-121.972;2023-05-14T11:27:32;1.27;;;0.70;;
50779;SDS011;36748;37.428;-121.972;2023-05-14T11:30:00;1.52;;;0.80;;
50779;SDS011;36748;37.428;-121.972;2023-05-14T11:32:26;1.48;;;0.68;;
50779;SDS011;36748;37.428;-121.972;2023-05-14T11:34:52;1.10;;;0.80;;
50779;SDS011;36748;37.428;-121.972;2023-05-14T11:37:18;1.20;;;1.00;;
50779;SDS011;36748;37.428;-121.972;2023-05-14T11:39:48;0.70;;;0.70;;
50779;SDS011;36748;37.428;-121.972;2023-05-14T11:42:17;0.82;;;0.80;;
50779;SDS011;36748;37.428;-121.972;2023-05-14T11:44:48;2.67;;;1.00;;
50779;SDS011;36748;37.428;-121.972;2023-05-14T11:47:16;3.95;;;1.13;;
50779;SDS011;36748;37.428;-121.972;2023-05-14T11:49:43;6.22;;;1.15;;
50779;SDS011;36748;37.428;-121.972;2023-05-14T11:52:10;11.73;;;1.40;;
50779;SDS011;36748;37.428;-121.972;2023-05-14T11:54:43;10.57;;;1.38;;
50779;SDS011;36748;37.428;-121.972;2023-05-14T11:59:37;3.15;;;1.08;;
50779;SDS011;36748;37.428;-121.972;2023-05-14T12:02:03;6.93;;;1.55;;
50779;SDS011;36748;37.428;-121.972;2023-05-14T12:04:30;3.08;;;1.10;;
50779;SDS011;36748;37.428;-121.972;2023-05-14T12:06:57;8.63;;;0.95;;
50779;SDS011;36748;37.428;-121.972;2023-05-14T12:09:24;2.58;;;0.80;;
50779;SDS011;36748;37.428;-121.972;2023-05-14T12:11:51;2.72;;;1.00;;
50779;SDS011;36748;37.428;-121.972;2023-05-14T12:14:21;1.35;;;0.82;;
50779;SDS011;36748;37.428;-121.972;2023-05-14T12:16:48;3.15;;;1.00;;
50779;SDS011;36748;37.428;-121.972;2023-05-14T12:19:16;4.80;;;1.20;;
50779;SDS011;36748;37.428;-121.972;2023-05-14T12:21:44;2.65;;;0.90;;
50779;SDS011;36748;37.428;-121.972;2023-05-14T12:24:12;1.63;;;0.77;;
50779;SDS011;36748;37.428;-121.972;2023-05-14T12:26:46;6.07;;;1.10;;
50779;SDS011;36748;37.428;-121.972;2023-05-14T12:29:13;3.83;;;0.90;;
50779;SDS011;36748;37.428;-121.972;2023-05-14T12:31:47;0.85;;;0.80;;
50779;SDS011;36748;37.428;-121.972;2023-05-14T12:34:14;1.77;;;0.90;;
50779;SDS011;36748;37.428;-121.972;2023-05-14T12:36:41;2.67;;;0.70;;
50779;SDS011;36748;37.428;-121.972;2023-05-14T12:39:08;4.95;;;0.80;;
50779;SDS011;36748;37.428;-121.972;2023-05-14T12:41:35;4.88;;;1.27;;
50779;SDS011;36748;37.428;-121.972;2023-05-14T12:44:02;2.78;;;1.38;;
50779;SDS011;36748;37.428;-121.972;2023-05-14T12:46:29;2.92;;;0.95;;
50779;SDS011;36748;37.428;-121.972;2023-05-14T12:48:55;2.25;;;0.77;;
50779;SDS011;36748;37.428;-121.972;2023-05-14T12:51:22;5.05;;;1.00;;
50779;SDS011;36748;37.428;-121.972;2023-05-14T12:53:48;2.08;;;0.98;;
50779;SDS011;36748;37.428;-121.972;2023-05-14T12:56:15;1.77;;;0.70;;
50779;SDS011;36748;37.428;-121.972;2023-05-14T12:58:42;2.95;;;1.02;;
50779;SDS011;36748;37.428;-121.972;2023-05-14T13:01:08;2.80;;;1.10;;
50779;SDS011;36748;37.428;-121.972;2023-05-14T13:03:34;3.22;;;1.00;;
50779;SDS011;36748;37.428;-121.972;2023-05-14T13:06:00;1.73;;;0.77;;
50779;SDS011;36748;37.428;-121.972;2023-05-14T13:08:26;1.13;;;0.75;;
50779;SDS011;36748;37.428;-121.972;2023-05-14T13:10:53;1.20;;;0.90;;
50779;SDS011;36748;37.428;-121.972;2023-05-14T13:13:20;1.48;;;0.75;;
50779;SDS011;36748;37.428;-121.972;2023-05-14T13:15:46;2.25;;;0.85;;
50779;SDS011;36748;37.428;-121.972;2023-05-14T13:18:13;1.80;;;0.90;;
50779;SDS011;36748;37.428;-121.972;2023-05-14T13:20:39;2.88;;;0.75;;
50779;SDS011;36748;37.428;-121.972;2023-05-14T13:23:06;2.00;;;0.73;;
50779;SDS011;36748;37.428;-121.972;2023-05-14T13:25:32;1.75;;;1.00;;
50779;SDS011;36748;37.428;-121.972;2023-05-14T13:27:58;1.83;;;0.95;;
50779;SDS011;36748;37.428;-121.972;2023-05-14T13:30:25;1.48;;;0.80;;
50779;SDS011;36748;37.428;-121.972;2023-05-14T13:32:51;3.40;;;1.10;;
50779;SDS011;36748;37.428;-121.972;2023-05-14T13:35:17;0.93;;;0.70;;
50779;SDS011;36748;37.428;-121.972;2023-05-14T13:37:43;1.23;;;0.80;;
50779;SDS011;36748;37.428;-121.972;2023-05-14T13:40:10;2.20;;;0.90;;
50779;SDS011;36748;37.428;-121.972;2023-05-14T13:42:36;1.13;;;0.80;;
50779;SDS011;36748;37.428;-121.972;2023-05-14T13:45:05;2.47;;;1.05;;
50779;SDS011;36748;37.428;-121.972;2023-05-14T13:47:32;3.28;;;1.00;;
50779;SDS011;36748;37.428;-121.972;2023-05-14T13:49:58;1.52;;;0.80;;
50779;SDS011;36748;37.428;-121.972;2023-05-14T13:52:24;1.00;;;0.68;;
50779;SDS011;36748;37.428;-121.972;2023-05-14T13:54:51;2.13;;;0.85;;
50779;SDS011;36748;37.428;-121.972;2023-05-14T13:57:20;1.08;;;0.63;;
50779;SDS011;36748;37.428;-121.972;2023-05-14T13:59:47;1.48;;;0.80;;
50779;SDS011;36748;37.428;-121.972;2023-05-14T14:02:13;1.60;;;0.90;;
50779;SDS011;36748;37.428;-121.972;2023-05-14T14:04:39;1.35;;;0.80;;
50779;SDS011;36748;37.428;-121.972;2023-05-14T14:07:06;0.80;;;0.65;;
50779;SDS011;36748;37.428;-121.972;2023-05-14T14:09:33;1.40;;;0.70;;
50779;SDS011;36748;37.428;-121.972;2023-05-14T14:12:04;0.77;;;0.60;;
50779;SDS011;36748;37.428;-121.972;2023-05-14T14:14:30;0.68;;;0.60;;
50779;SDS011;36748;37.428;-121.972;2023-05-14T14:16:57;0.77;;;0.43;;
50779;SDS011;36748;37.428;-121.972;2023-05-14T14:19:23;1.17;;;0.80;;
50779;SDS011;36748;37.428;-121.972;2023-05-14T14:21:49;1.27;;;0.80;;
50779;SDS011;36748;37.428;-121.972;2023-05-14T14:24:15;2.08;;;0.75;;
50779;SDS011;36748;37.428;-121.972;2023-05-14T14:26:41;0.95;;;0.70;;